sensor_id;sensor_type;location;lat;lon;timestamp;P1;durP1;ratioP1;P2;durP2;ratioP2
80619;SDS011;69979;53.682;-2.690;2023-11-21T00:00:36;0;;;0;;
80619;SDS011;69979;53.682;-2.690;2023-11-21T00:03:01;0;;;0;;
80619;SDS011;69979;53.682;-2.690;2023-11-21T00:05:27;0;;;0;;
80619;SDS011;69979;53.682;-2.690;2023-11-21T00:07:53;1;;;1;;
80619;SDS011;69979;53.682;-2.690;2023-11-21T00:10:18;0;;;0;;
80619;SDS011;69979;53.682;-2.690;2023-11-21T00:12:44;0;;;0;;
80619;SDS011;69979;53.682;-2.690;2023-11-21T00:15:10;0;;;0;;
80619;SDS011;69979;53.682;-2.690;2023-11-21T00:17:35;0;;;0;;
80619;SDS011;69979;53.682;-2.690;2023-11-21T00:20:01;0;;;0;;
80619;SDS011;69979;53.682;-2.690;2023-11-21T00:22:26;0;;;0;;
80619;SDS011;69979;53.682;-2.690;2023-11-21T00:24:52;0;;;0;;
80619;SDS011;69979;53.682;-2.690;2023-11-21T00:27:17;1;;;1;;
80619;SDS011;69979;53.682;-2.690;2023-11-21T00:29:43;0;;;0;;
80619;SDS011;69979;53.682;-2.690;2023-11-21T00:32:09;0;;;0;;
80619;SDS011;69979;53.682;-2.690;2023-11-21T00:34:34;0;;;0;;
80619;SDS011;69979;53.682;-2.690;2023-11-21T00:37:00;0;;;0;;
80619;SDS011;69979;53.682;-2.690;2023-11-21T00:39:25;0;;;0;;
80619;SDS011;69979;53.682;-2.690;2023-11-21T00:41:51;0;;;0;;
80619;SDS011;69979;53.682;-2.690;2023-11-21T00:44:17;0;;;0;;
80619;SDS011;69979;53.682;-2.690;2023-11-21T00:46:42;0;;;0;;
80619;SDS011;69979;53.682;-2.690;2023-11-21T00:49:08;0;;;0;;
80619;SDS011;69979;53.682;-2.690;2023-11-21T00:51:33;0;;;0;;
80619;SDS011;69979;53.682;-2.690;2023-11-21T00:53:59;0;;;0;;
80619;SDS011;69979;53.682;-2.690;2023-11-21T00:56:25;0;;;0;;
80619;SDS011;69979;53.682;-2.690;2023-11-21T00:58:50;1;;;1;;
80619;SDS011;69979;53.682;-2.690;2023-11-21T01:01:16;0;;;0;;
80619;SDS011;69979;53.682;-2.690;2023-11-21T01:03:41;0;;;0;;
80619;SDS011;69979;53.682;-2.690;2023-11-21T01:06:07;1;;;1;;
80619;SDS011;69979;53.682;-2.690;2023-11-21T01:08:33;1;;;1;;
80619;SDS011;69979;53.682;-2.690;2023-11-21T01:10:58;0;;;0;;
80619;SDS011;69979;53.682;-2.690;2023-11-21T01:13:24;0;;;0;;
80619;SDS011;69979;53.682;-2.690;2023-11-21T01:15:49;0;;;0;;
80619;SDS011;69979;53.682;-2.690;2023-11-21T01:18:15;0;;;0;;
80619;SDS011;69979;53.682;-2.690;2023-11-21T01:20:41;1;;;1;;
80619;SDS011;69979;53.682;-2.690;2023-11-21T01:23:06;1;;;1;;
80619;SDS011;69979;53.682;-2.690;2023-11-21T01:25:32;0;;;0;;
80619;SDS011;69979;53.682;-2.690;2023-11-21T01:27:57;0;;;0;;
80619;SDS011;69979;53.682;-2.690;2023-11-21T01:30:23;0;;;0;;
80619;SDS011;69979;53.682;-2.690;2023-11-21T01:32:49;0;;;0;;
80619;SDS011;69979;53.682;-2.690;2023-11-21T01:35:14;0;;;0;;
80619;SDS011;69979;53.682;-2.690;2023-11-21T01:37:40;0;;;0;;
80619;SDS011;69979;53.682;-2.690;2023-11-21T01:40:06;0;;;0;;
80619;SDS011;69979;53.682;-2.690;2023-11-21T01:42:31;1;;;0;;
80619;SDS011;69979;53.682;-2.690;2023-11-21T01:44:57;0;;;0;;
80619;SDS011;69979;53.682;-2.690;2023-11-21T01:47:22;0;;;0;;
80619;SDS011;69979;53.682;-2.690;2023-11-21T01:49:48;0;;;0;;
80619;SDS011;69979;53.682;-2.690;2023-11-21T01:52:13;1;;;0;;
80619;SDS011;69979;53.682;-2.690;2023-11-21T01:54:39;1;;;0;;
80619;SDS011;69979;53.682;-2.690;2023-11-21T01:57:05;0;;;0;;
80619;SDS011;69979;53.682;-2.690;2023-11-21T01:59:33;0;;;0;;
80619;SDS011;69979;53.682;-2.690;2023-11-21T02:01:56;0;;;0;;
80619;SDS011;69979;53.682;-2.690;2023-11-21T02:04:21;0;;;0;;
80619;SDS011;69979;53.682;-2.690;2023-11-21T02:06:47;0;;;0;;
80619;SDS011;69979;53.682;-2.690;2023-11-21T02:09:12;0;;;0;;
80619;SDS011;69979;53.682;-2.690;2023-11-21T02:11:38;0;;;0;;
80619;SDS011;69979;53.682;-2.690;2023-11-21T02:14:04;0;;;0;;
80619;SDS011;69979;53.682;-2.690;2023-11-21T02:16:29;0;;;0;;
80619;SDS011;69979;53.682;-2.690;2023-11-21T02:18:55;0;;;0;;
80619;SDS011;69979;53.682;-2.690;2023-11-21T02:21:20;0;;;0;;
80619;SDS011;69979;53.682;-2.690;2023-11-21T02:23:46;0;;;0;;
80619;SDS011;69979;53.682;-2.690;2023-11-21T02:26:12;0;;;0;;
80619;SDS011;69979;53.682;-2.690;2023-11-21T02:28:37;0;;;0;;
80619;SDS011;69979;53.682;-2.690;2023-11-21T02:31:03;0;;;0;;
80619;SDS011;69979;53.682;-2.690;2023-11-21T02:33:28;0;;;0;;
80619;SDS011;69979;53.682;-2.690;2023-11-21T02:35:54;0;;;0;;
80619;SDS011;69979;53.682;-2.690;2023-11-21T02:38:20;0;;;0;;
80619;SDS011;69979;53.682;-2.690;2023-11-21T02:40:45;0;;;0;;
80619;SDS011;69979;53.682;-2.690;2023-11-21T02:43:11;0;;;0;;
80619;SDS011;69979;53.682;-2.690;2023-11-21T02:45:36;0;;;0;;
80619;SDS011;69979;53.682;-2.690;2023-11-21T02:48:02;0;;;0;;
80619;SDS011;69979;53.682;-2.690;2023-11-21T02:50:28;0;;;0;;
80619;SDS011;69979;53.682;-2.690;2023-11-21T02:52:53;0;;;0;;
80619;SDS011;69979;53.682;-2.690;2023-11-21T02:55:19;0;;;0;;
80619;SDS011;69979;53.682;-2.690;2023-11-21T02:57:45;0;;;0;;
80619;SDS011;69979;53.682;-2.690;2023-11-21T03:00:10;0;;;0;;
80619;SDS011;69979;53.682;-2.690;2023-11-21T03:02:36;0;;;0;;
80619;SDS011;69979;53.682;-2.690;2023-11-21T03:05:02;0;;;0;;
80619;SDS011;69979;53.682;-2.690;2023-11-21T03:07:27;0;;;0;;
80619;SDS011;69979;53.682;-2.690;2023-11-21T03:09:53;0;;;0;;
80619;SDS011;69979;53.682;-2.690;2023-11-21T03:12:18;0;;;0;;
80619;SDS011;69979;53.682;-2.690;2023-11-21T03:14:44;1;;;0;;
80619;SDS011;69979;53.682;-2.690;2023-11-21T03:17:10;0;;;0;;
80619;SDS011;69979;53.682;-2.690;2023-11-21T03:19:35;0;;;0;;
80619;SDS011;69979;53.682;-2.690;2023-11-21T03:22:01;0;;;0;;
80619;SDS011;69979;53.682;-2.690;2023-11-21T03:24:26;0;;;0;;
80619;SDS011;69979;53.682;-2.690;2023-11-21T03:26:52;0;;;0;;
80619;SDS011;69979;53.682;-2.690;2023-11-21T03:29:18;0;;;0;;
80619;SDS011;69979;53.682;-2.690;2023-11-21T03:31:43;0;;;0;;
80619;SDS011;69979;53.682;-2.690;2023-11-21T03:34:15;0;;;0;;
80619;SDS011;69979;53.682;-2.690;2023-11-21T03:36:35;0;;;0;;
80619;SDS011;69979;53.682;-2.690;2023-11-21T03:39:01;0;;;0;;
80619;SDS011;69979;53.682;-2.690;2023-11-21T03:41:26;1;;;1;;
80619;SDS011;69979;53.682;-2.690;2023-11-21T03:43:52;0;;;0;;
80619;SDS011;69979;53.682;-2.690;2023-11-21T03:46:17;0;;;0;;
80619;SDS011;69979;53.682;-2.690;2023-11-21T03:48:43;0;;;0;;
80619;SDS011;69979;53.682;-2.690;2023-11-21T03:51:08;0;;;0;;
80619;SDS011;69979;53.682;-2.690;2023-11-21T03:53:34;1;;;1;;
80619;SDS011;69979;53.682;-2.690;2023-11-21T03:56:01;0;;;0;;
80619;SDS011;69979;53.682;-2.690;2023-11-21T03:58:25;0;;;0;;
80619;SDS011;69979;53.682;-2.690;2023-11-21T04:00:51;0;;;0;;
80619;SDS011;69979;53.682;-2.690;2023-11-21T04:03:17;0;;;0;;
80619;SDS011;69979;53.682;-2.690;2023-11-21T04:05:42;0;;;0;;
80619;SDS011;69979;53.682;-2.690;2023-11-21T04:08:08;0;;;0;;
80619;SDS011;69979;53.682;-2.690;2023-11-21T04:10:34;0;;;0;;
80619;SDS011;69979;53.682;-2.690;2023-11-21T04:12:59;0;;;0;;
80619;SDS011;69979;53.682;-2.690;2023-11-21T04:15:25;0;;;0;;
80619;SDS011;69979;53.682;-2.690;2023-11-21T04:17:50;0;;;0;;
80619;SDS011;69979;53.682;-2.690;2023-11-21T04:20:16;0;;;0;;
80619;SDS011;69979;53.682;-2.690;2023-11-21T04:22:42;0;;;0;;
80619;SDS011;69979;53.682;-2.690;2023-11-21T04:25:08;0;;;0;;
80619;SDS011;69979;53.682;-2.690;2023-11-21T04:27:33;0;;;0;;
80619;SDS011;69979;53.682;-2.690;2023-11-21T04:29:59;0;;;0;;
80619;SDS011;69979;53.682;-2.690;2023-11-21T04:32:24;0;;;0;;
80619;SDS011;69979;53.682;-2.690;2023-11-21T04:34:50;0;;;0;;
80619;SDS011;69979;53.682;-2.690;2023-11-21T04:37:15;0;;;0;;
80619;SDS011;69979;53.682;-2.690;2023-11-21T04:39:41;0;;;0;;
80619;SDS011;69979;53.682;-2.690;2023-11-21T04:42:07;0;;;0;;
80619;SDS011;69979;53.682;-2.690;2023-11-21T04:44:32;0;;;0;;
80619;SDS011;69979;53.682;-2.690;2023-11-21T04:46:58;0;;;0;;
80619;SDS011;69979;53.682;-2.690;2023-11-21T04:49:24;0;;;0;;
80619;SDS011;69979;53.682;-2.690;2023-11-21T04:51:49;0;;;0;;
80619;SDS011;69979;53.682;-2.690;2023-11-21T04:54:15;0;;;0;;
80619;SDS011;69979;53.682;-2.690;2023-11-21T04:56:41;0;;;0;;
80619;SDS011;69979;53.682;-2.690;2023-11-21T04:59:06;0;;;0;;
80619;SDS011;69979;53.682;-2.690;2023-11-21T05:01:32;0;;;0;;
80619;SDS011;69979;53.682;-2.690;2023-11-21T05:03:57;0;;;0;;
80619;SDS011;69979;53.682;-2.690;2023-11-21T05:06:23;0;;;0;;
80619;SDS011;69979;53.682;-2.690;2023-11-21T05:08:49;0;;;0;;
80619;SDS011;69979;53.682;-2.690;2023-11-21T05:13:40;0;;;0;;
80619;SDS011;69979;53.682;-2.690;2023-11-21T05:16:06;0;;;0;;
80619;SDS011;69979;53.682;-2.690;2023-11-21T05:18:31;0;;;0;;
80619;SDS011;69979;53.682;-2.690;2023-11-21T05:20:57;0;;;0;;
80619;SDS011;69979;53.682;-2.690;2023-11-21T05:23:22;0;;;0;;
80619;SDS011;69979;53.682;-2.690;2023-11-21T05:25:48;0;;;0;;
80619;SDS011;69979;53.682;-2.690;2023-11-21T05:28:14;0;;;0;;
80619;SDS011;69979;53.682;-2.690;2023-11-21T05:30:40;0;;;0;;
80619;SDS011;69979;53.682;-2.690;2023-11-21T05:33:05;0;;;0;;
80619;SDS011;69979;53.682;-2.690;2023-11-21T05:35:31;0;;;0;;
80619;SDS011;69979;53.682;-2.690;2023-11-21T05:37:56;0;;;0;;
80619;SDS011;69979;53.682;-2.690;2023-11-21T05:40:22;0;;;0;;
80619;SDS011;69979;53.682;-2.690;2023-11-21T05:42:47;0;;;0;;
80619;SDS011;69979;53.682;-2.690;2023-11-21T05:45:13;0;;;0;;
80619;SDS011;69979;53.682;-2.690;2023-11-21T05:47:39;0;;;0;;
80619;SDS011;69979;53.682;-2.690;2023-11-21T05:50:05;0;;;0;;
80619;SDS011;69979;53.682;-2.690;2023-11-21T05:52:30;0;;;0;;
80619;SDS011;69979;53.682;-2.690;2023-11-21T05:54:56;0;;;0;;
80619;SDS011;69979;53.682;-2.690;2023-11-21T05:57:21;0;;;0;;
80619;SDS011;69979;53.682;-2.690;2023-11-21T05:59:47;0;;;0;;
80619;SDS011;69979;53.682;-2.690;2023-11-21T06:02:12;0;;;0;;
80619;SDS011;69979;53.682;-2.690;2023-11-21T06:04:38;0;;;0;;
80619;SDS011;69979;53.682;-2.690;2023-11-21T06:07:04;0;;;0;;
80619;SDS011;69979;53.682;-2.690;2023-11-21T06:09:29;0;;;0;;
80619;SDS011;69979;53.682;-2.690;2023-11-21T06:11:55;0;;;0;;
80619;SDS011;69979;53.682;-2.690;2023-11-21T06:14:20;0;;;0;;
80619;SDS011;69979;53.682;-2.690;2023-11-21T06:16:46;0;;;0;;
80619;SDS011;69979;53.682;-2.690;2023-11-21T06:19:12;0;;;0;;
80619;SDS011;69979;53.682;-2.690;2023-11-21T06:21:37;1;;;0;;
80619;SDS011;69979;53.682;-2.690;2023-11-21T06:24:03;0;;;0;;
80619;SDS011;69979;53.682;-2.690;2023-11-21T06:26:29;1;;;0;;
80619;SDS011;69979;53.682;-2.690;2023-11-21T06:28:54;0;;;0;;
80619;SDS011;69979;53.682;-2.690;2023-11-21T06:31:20;0;;;0;;
80619;SDS011;69979;53.682;-2.690;2023-11-21T06:33:45;0;;;0;;
80619;SDS011;69979;53.682;-2.690;2023-11-21T06:36:11;0;;;0;;
80619;SDS011;69979;53.682;-2.690;2023-11-21T06:38:37;0;;;0;;
80619;SDS011;69979;53.682;-2.690;2023-11-21T06:41:02;1;;;1;;
80619;SDS011;69979;53.682;-2.690;2023-11-21T06:43:28;0;;;0;;
80619;SDS011;69979;53.682;-2.690;2023-11-21T06:45:54;1;;;0;;
80619;SDS011;69979;53.682;-2.690;2023-11-21T06:48:19;1;;;1;;
80619;SDS011;69979;53.682;-2.690;2023-11-21T06:50:45;2;;;2;;
80619;SDS011;69979;53.682;-2.690;2023-11-21T06:53:11;1;;;1;;
80619;SDS011;69979;53.682;-2.690;2023-11-21T06:55:36;1;;;1;;
80619;SDS011;69979;53.682;-2.690;2023-11-21T06:58:02;1;;;0;;
80619;SDS011;69979;53.682;-2.690;2023-11-21T07:00:27;0;;;0;;
80619;SDS011;69979;53.682;-2.690;2023-11-21T07:02:53;1;;;1;;
80619;SDS011;69979;53.682;-2.690;2023-11-21T07:05:19;1;;;0;;
80619;SDS011;69979;53.682;-2.690;2023-11-21T07:07:44;0;;;0;;
80619;SDS011;69979;53.682;-2.690;2023-11-21T07:10:10;0;;;0;;
80619;SDS011;69979;53.682;-2.690;2023-11-21T07:12:36;1;;;1;;
80619;SDS011;69979;53.682;-2.690;2023-11-21T07:15:01;0;;;0;;
80619;SDS011;69979;53.682;-2.690;2023-11-21T07:17:27;2;;;2;;
80619;SDS011;69979;53.682;-2.690;2023-11-21T07:19:52;0;;;0;;
80619;SDS011;69979;53.682;-2.690;2023-11-21T07:22:18;0;;;0;;
80619;SDS011;69979;53.682;-2.690;2023-11-21T07:24:44;0;;;0;;
80619;SDS011;69979;53.682;-2.690;2023-11-21T07:27:09;0;;;0;;
80619;SDS011;69979;53.682;-2.690;2023-11-21T07:29:35;0;;;0;;
80619;SDS011;69979;53.682;-2.690;2023-11-21T07:32:01;1;;;1;;
80619;SDS011;69979;53.682;-2.690;2023-11-21T07:34:26;1;;;1;;
80619;SDS011;69979;53.682;-2.690;2023-11-21T07:36:52;1;;;1;;
80619;SDS011;69979;53.682;-2.690;2023-11-21T07:39:18;2;;;2;;
80619;SDS011;69979;53.682;-2.690;2023-11-21T07:41:43;2;;;2;;
80619;SDS011;69979;53.682;-2.690;2023-11-21T07:44:09;1;;;1;;
80619;SDS011;69979;53.682;-2.690;2023-11-21T07:46:35;1;;;1;;
80619;SDS011;69979;53.682;-2.690;2023-11-21T07:49:00;1;;;1;;
80619;SDS011;69979;53.682;-2.690;2023-11-21T07:51:26;1;;;1;;
80619;SDS011;69979;53.682;-2.690;2023-11-21T07:53:51;1;;;1;;
80619;SDS011;69979;53.682;-2.690;2023-11-21T07:56:17;2;;;2;;
80619;SDS011;69979;53.682;-2.690;2023-11-21T07:58:43;0;;;0;;
80619;SDS011;69979;53.682;-2.690;2023-11-21T08:01:08;1;;;0;;
80619;SDS011;69979;53.682;-2.690;2023-11-21T08:03:34;1;;;1;;
80619;SDS011;69979;53.682;-2.690;2023-11-21T08:06:00;0;;;0;;
80619;SDS011;69979;53.682;-2.690;2023-11-21T08:08:25;0;;;0;;
80619;SDS011;69979;53.682;-2.690;2023-11-21T08:10:51;0;;;0;;
80619;SDS011;69979;53.682;-2.690;2023-11-21T08:13:17;0;;;0;;
80619;SDS011;69979;53.682;-2.690;2023-11-21T08:15:42;1;;;1;;
80619;SDS011;69979;53.682;-2.690;2023-11-21T08:18:08;0;;;0;;
80619;SDS011;69979;53.682;-2.690;2023-11-21T08:20:34;1;;;1;;
80619;SDS011;69979;53.682;-2.690;2023-11-21T08:23:00;0;;;0;;
80619;SDS011;69979;53.682;-2.690;2023-11-21T08:25:26;1;;;1;;
80619;SDS011;69979;53.682;-2.690;2023-11-21T08:27:51;1;;;1;;
80619;SDS011;69979;53.682;-2.690;2023-11-21T08:30:17;1;;;1;;
80619;SDS011;69979;53.682;-2.690;2023-11-21T08:32:42;2;;;1;;
80619;SDS011;69979;53.682;-2.690;2023-11-21T08:35:08;0;;;0;;
80619;SDS011;69979;53.682;-2.690;2023-11-21T08:37:34;1;;;1;;
80619;SDS011;69979;53.682;-2.690;2023-11-21T08:39:59;0;;;0;;
80619;SDS011;69979;53.682;-2.690;2023-11-21T08:42:25;2;;;1;;
80619;SDS011;69979;53.682;-2.690;2023-11-21T08:44:51;2;;;2;;
80619;SDS011;69979;53.682;-2.690;2023-11-21T08:47:16;0;;;0;;
80619;SDS011;69979;53.682;-2.690;2023-11-21T08:49:42;1;;;1;;
80619;SDS011;69979;53.682;-2.690;2023-11-21T08:52:07;1;;;1;;
80619;SDS011;69979;53.682;-2.690;2023-11-21T08:54:33;0;;;0;;
80619;SDS011;69979;53.682;-2.690;2023-11-21T08:56:58;1;;;1;;
80619;SDS011;69979;53.682;-2.690;2023-11-21T08:59:24;1;;;1;;
80619;SDS011;69979;53.682;-2.690;2023-11-21T09:01:50;1;;;1;;
80619;SDS011;69979;53.682;-2.690;2023-11-21T09:04:15;1;;;1;;
80619;SDS011;69979;53.682;-2.690;2023-11-21T09:06:41;1;;;1;;
80619;SDS011;69979;53.682;-2.690;2023-11-21T09:09:06;1;;;1;;
80619;SDS011;69979;53.682;-2.690;2023-11-21T09:11:32;0;;;0;;
80619;SDS011;69979;53.682;-2.690;2023-11-21T09:13:58;0;;;0;;
80619;SDS011;69979;53.682;-2.690;2023-11-21T09:16:23;0;;;0;;
80619;SDS011;69979;53.682;-2.690;2023-11-21T09:18:49;1;;;1;;
80619;SDS011;69979;53.682;-2.690;2023-11-21T09:21:14;1;;;1;;
80619;SDS011;69979;53.682;-2.690;2023-11-21T09:23:40;3;;;2;;
80619;SDS011;69979;53.682;-2.690;2023-11-21T09:26:06;1;;;1;;
80619;SDS011;69979;53.682;-2.690;2023-11-21T09:28:31;1;;;1;;
80619;SDS011;69979;53.682;-2.690;2023-11-21T09:30:57;1;;;1;;
80619;SDS011;69979;53.682;-2.690;2023-11-21T09:33:22;2;;;1;;
80619;SDS011;69979;53.682;-2.690;2023-11-21T09:35:48;2;;;1;;
80619;SDS011;69979;53.682;-2.690;2023-11-21T09:38:14;1;;;1;;
80619;SDS011;69979;53.682;-2.690;2023-11-21T09:40:39;2;;;2;;
80619;SDS011;69979;53.682;-2.690;2023-11-21T09:43:05;2;;;2;;
80619;SDS011;69979;53.682;-2.690;2023-11-21T09:45:32;0;;;0;;
80619;SDS011;69979;53.682;-2.690;2023-11-21T09:47:56;1;;;1;;
80619;SDS011;69979;53.682;-2.690;2023-11-21T09:50:22;2;;;2;;
80619;SDS011;69979;53.682;-2.690;2023-11-21T09:52:49;1;;;1;;
80619;SDS011;69979;53.682;-2.690;2023-11-21T09:55:13;1;;;1;;
80619;SDS011;69979;53.682;-2.690;2023-11-21T09:57:38;2;;;1;;
80619;SDS011;69979;53.682;-2.690;2023-11-21T10:00:04;2;;;2;;
80619;SDS011;69979;53.682;-2.690;2023-11-21T10:02:29;3;;;3;;
80619;SDS011;69979;53.682;-2.690;2023-11-21T10:04:55;2;;;2;;
80619;SDS011;69979;53.682;-2.690;2023-11-21T10:07:21;3;;;3;;
80619;SDS011;69979;53.682;-2.690;2023-11-21T10:09:46;3;;;3;;
80619;SDS011;69979;53.682;-2.690;2023-11-21T10:12:12;3;;;3;;
80619;SDS011;69979;53.682;-2.690;2023-11-21T10:14:37;6;;;5;;
80619;SDS011;69979;53.682;-2.690;2023-11-21T10:17:03;5;;;5;;
80619;SDS011;69979;53.682;-2.690;2023-11-21T10:19:28;9;;;8;;
80619;SDS011;69979;53.682;-2.690;2023-11-21T10:21:54;5;;;5;;
80619;SDS011;69979;53.682;-2.690;2023-11-21T10:24:20;4;;;4;;
80619;SDS011;69979;53.682;-2.690;2023-11-21T10:26:45;8;;;8;;
80619;SDS011;69979;53.682;-2.690;2023-11-21T10:29:11;8;;;7;;
80619;SDS011;69979;53.682;-2.690;2023-11-21T10:31:36;6;;;6;;
80619;SDS011;69979;53.682;-2.690;2023-11-21T10:36:28;6;;;6;;
80619;SDS011;69979;53.682;-2.690;2023-11-21T10:38:53;5;;;5;;
80619;SDS011;69979;53.682;-2.690;2023-11-21T10:41:19;5;;;4;;
80619;SDS011;69979;53.682;-2.690;2023-11-21T10:43:44;4;;;3;;
80619;SDS011;69979;53.682;-2.690;2023-11-21T10:46:10;2;;;2;;
80619;SDS011;69979;53.682;-2.690;2023-11-21T10:48:36;2;;;2;;
80619;SDS011;69979;53.682;-2.690;2023-11-21T10:51:01;1;;;1;;
80619;SDS011;69979;53.682;-2.690;2023-11-21T10:53:28;1;;;1;;
80619;SDS011;69979;53.682;-2.690;2023-11-21T10:58:18;1;;;1;;
80619;SDS011;69979;53.682;-2.690;2023-11-21T11:00:43;1;;;1;;
80619;SDS011;69979;53.682;-2.690;2023-11-21T11:03:09;2;;;2;;
80619;SDS011;69979;53.682;-2.690;2023-11-21T11:05:35;3;;;3;;
80619;SDS011;69979;53.682;-2.690;2023-11-21T11:08:02;1;;;1;;
80619;SDS011;69979;53.682;-2.690;2023-11-21T11:10:26;2;;;2;;
80619;SDS011;69979;53.682;-2.690;2023-11-21T11:12:51;1;;;0;;
80619;SDS011;69979;53.682;-2.690;2023-11-21T11:15:17;2;;;1;;
80619;SDS011;69979;53.682;-2.690;2023-11-21T11:17:43;2;;;2;;
80619;SDS011;69979;53.682;-2.690;2023-11-21T11:20:08;4;;;4;;
80619;SDS011;69979;53.682;-2.690;2023-11-21T11:22:36;4;;;4;;
80619;SDS011;69979;53.682;-2.690;2023-11-21T11:25:06;4;;;3;;
80619;SDS011;69979;53.682;-2.690;2023-11-21T11:27:34;3;;;3;;
80619;SDS011;69979;53.682;-2.690;2023-11-21T11:29:53;3;;;2;;
80619;SDS011;69979;53.682;-2.690;2023-11-21T11:32:18;2;;;2;;
80619;SDS011;69979;53.682;-2.690;2023-11-21T11:34:44;2;;;2;;
80619;SDS011;69979;53.682;-2.690;2023-11-21T11:37:07;2;;;2;;
80619;SDS011;69979;53.682;-2.690;2023-11-21T11:39:35;2;;;1;;
80619;SDS011;69979;53.682;-2.690;2023-11-21T11:42:01;2;;;2;;
80619;SDS011;69979;53.682;-2.690;2023-11-21T11:46:50;2;;;2;;
80619;SDS011;69979;53.682;-2.690;2023-11-21T11:51:41;2;;;2;;
80619;SDS011;69979;53.682;-2.690;2023-11-21T11:54:07;5;;;4;;
80619;SDS011;69979;53.682;-2.690;2023-11-21T11:56:33;3;;;2;;
80619;SDS011;69979;53.682;-2.690;2023-11-21T11:58:59;2;;;2;;
80619;SDS011;69979;53.682;-2.690;2023-11-21T12:01:24;3;;;3;;
80619;SDS011;69979;53.682;-2.690;2023-11-21T12:06:14;2;;;2;;
80619;SDS011;69979;53.682;-2.690;2023-11-21T12:08:41;1;;;1;;
80619;SDS011;69979;53.682;-2.690;2023-11-21T12:11:05;1;;;1;;
80619;SDS011;69979;53.682;-2.690;2023-11-21T12:13:31;1;;;1;;
80619;SDS011;69979;53.682;-2.690;2023-11-21T12:15:57;2;;;2;;
80619;SDS011;69979;53.682;-2.690;2023-11-21T12:18:22;2;;;2;;
80619;SDS011;69979;53.682;-2.690;2023-11-21T12:20:48;3;;;3;;
80619;SDS011;69979;53.682;-2.690;2023-11-21T12:23:13;2;;;2;;
80619;SDS011;69979;53.682;-2.690;2023-11-21T12:25:39;2;;;1;;
80619;SDS011;69979;53.682;-2.690;2023-11-21T12:28:05;1;;;1;;
80619;SDS011;69979;53.682;-2.690;2023-11-21T12:30:31;1;;;1;;
80619;SDS011;69979;53.682;-2.690;2023-11-21T12:32:56;2;;;1;;
80619;SDS011;69979;53.682;-2.690;2023-11-21T12:35:22;3;;;2;;
80619;SDS011;69979;53.682;-2.690;2023-11-21T12:37:47;2;;;2;;
80619;SDS011;69979;53.682;-2.690;2023-11-21T12:40:13;1;;;1;;
80619;SDS011;69979;53.682;-2.690;2023-11-21T12:42:39;2;;;2;;
80619;SDS011;69979;53.682;-2.690;2023-11-21T12:45:08;2;;;1;;
80619;SDS011;69979;53.682;-2.690;2023-11-21T12:47:29;1;;;0;;
80619;SDS011;69979;53.682;-2.690;2023-11-21T12:49:55;1;;;1;;
80619;SDS011;69979;53.682;-2.690;2023-11-21T12:52:20;1;;;1;;
80619;SDS011;69979;53.682;-2.690;2023-11-21T12:54:46;1;;;1;;
80619;SDS011;69979;53.682;-2.690;2023-11-21T12:57:11;0;;;0;;
80619;SDS011;69979;53.682;-2.690;2023-11-21T12:59:38;0;;;0;;
80619;SDS011;69979;53.682;-2.690;2023-11-21T13:02:05;1;;;1;;
80619;SDS011;69979;53.682;-2.690;2023-11-21T13:04:29;2;;;2;;
80619;SDS011;69979;53.682;-2.690;2023-11-21T13:06:54;2;;;2;;
80619;SDS011;69979;53.682;-2.690;2023-11-21T13:09:19;1;;;1;;
80619;SDS011;69979;53.682;-2.690;2023-11-21T13:11:45;1;;;1;;
80619;SDS011;69979;53.682;-2.690;2023-11-21T13:14:11;1;;;0;;
80619;SDS011;69979;53.682;-2.690;2023-11-21T13:16:36;1;;;1;;
80619;SDS011;69979;53.682;-2.690;2023-11-21T13:19:02;1;;;1;;
80619;SDS011;69979;53.682;-2.690;2023-11-21T13:21:27;2;;;2;;
80619;SDS011;69979;53.682;-2.690;2023-11-21T13:23:53;2;;;2;;
80619;SDS011;69979;53.682;-2.690;2023-11-21T13:26:19;1;;;1;;
80619;SDS011;69979;53.682;-2.690;2023-11-21T13:28:44;2;;;2;;
80619;SDS011;69979;53.682;-2.690;2023-11-21T13:31:10;1;;;1;;
80619;SDS011;69979;53.682;-2.690;2023-11-21T13:33:35;2;;;1;;
80619;SDS011;69979;53.682;-2.690;2023-11-21T13:36:01;1;;;1;;
80619;SDS011;69979;53.682;-2.690;2023-11-21T13:38:27;2;;;2;;
80619;SDS011;69979;53.682;-2.690;2023-11-21T13:40:53;1;;;1;;
80619;SDS011;69979;53.682;-2.690;2023-11-21T13:43:18;1;;;1;;
80619;SDS011;69979;53.682;-2.690;2023-11-21T13:45:44;1;;;1;;
80619;SDS011;69979;53.682;-2.690;2023-11-21T13:48:10;1;;;1;;
80619;SDS011;69979;53.682;-2.690;2023-11-21T13:50:35;1;;;1;;
80619;SDS011;69979;53.682;-2.690;2023-11-21T13:53:00;1;;;1;;
80619;SDS011;69979;53.682;-2.690;2023-11-21T13:55:26;1;;;1;;
80619;SDS011;69979;53.682;-2.690;2023-11-21T13:57:51;2;;;2;;
80619;SDS011;69979;53.682;-2.690;2023-11-21T14:00:17;2;;;2;;
80619;SDS011;69979;53.682;-2.690;2023-11-21T14:02:43;2;;;2;;
80619;SDS011;69979;53.682;-2.690;2023-11-21T14:05:08;3;;;3;;
80619;SDS011;69979;53.682;-2.690;2023-11-21T14:07:34;3;;;3;;
80619;SDS011;69979;53.682;-2.690;2023-11-21T14:09:59;4;;;4;;
80619;SDS011;69979;53.682;-2.690;2023-11-21T14:12:25;2;;;2;;
80619;SDS011;69979;53.682;-2.690;2023-11-21T14:14:51;1;;;1;;
80619;SDS011;69979;53.682;-2.690;2023-11-21T14:17:16;2;;;2;;
80619;SDS011;69979;53.682;-2.690;2023-11-21T14:19:41;2;;;2;;
80619;SDS011;69979;53.682;-2.690;2023-11-21T14:22:07;1;;;1;;
80619;SDS011;69979;53.682;-2.690;2023-11-21T14:24:33;1;;;1;;
80619;SDS011;69979;53.682;-2.690;2023-11-21T14:26:58;1;;;1;;
80619;SDS011;69979;53.682;-2.690;2023-11-21T14:29:24;2;;;2;;
80619;SDS011;69979;53.682;-2.690;2023-11-21T14:31:49;2;;;2;;
80619;SDS011;69979;53.682;-2.690;2023-11-21T14:34:15;2;;;2;;
80619;SDS011;69979;53.682;-2.690;2023-11-21T14:36:41;2;;;2;;
80619;SDS011;69979;53.682;-2.690;2023-11-21T14:39:06;5;;;4;;
80619;SDS011;69979;53.682;-2.690;2023-11-21T14:41:32;5;;;5;;
80619;SDS011;69979;53.682;-2.690;2023-11-21T14:43:57;4;;;4;;
80619;SDS011;69979;53.682;-2.690;2023-11-21T14:46:23;2;;;2;;
80619;SDS011;69979;53.682;-2.690;2023-11-21T14:48:48;4;;;4;;
80619;SDS011;69979;53.682;-2.690;2023-11-21T14:51:14;4;;;4;;
80619;SDS011;69979;53.682;-2.690;2023-11-21T14:53:40;4;;;4;;
80619;SDS011;69979;53.682;-2.690;2023-11-21T14:56:06;7;;;7;;
80619;SDS011;69979;53.682;-2.690;2023-11-21T14:58:31;5;;;5;;
80619;SDS011;69979;53.682;-2.690;2023-11-21T15:00:57;4;;;4;;
80619;SDS011;69979;53.682;-2.690;2023-11-21T15:03:22;6;;;5;;
80619;SDS011;69979;53.682;-2.690;2023-11-21T15:05:47;2;;;2;;
80619;SDS011;69979;53.682;-2.690;2023-11-21T15:08:13;4;;;4;;
80619;SDS011;69979;53.682;-2.690;2023-11-21T15:10:39;4;;;3;;
80619;SDS011;69979;53.682;-2.690;2023-11-21T15:13:04;4;;;4;;
80619;SDS011;69979;53.682;-2.690;2023-11-21T15:15:30;3;;;3;;
80619;SDS011;69979;53.682;-2.690;2023-11-21T15:17:55;4;;;4;;
80619;SDS011;69979;53.682;-2.690;2023-11-21T15:20:21;5;;;5;;
80619;SDS011;69979;53.682;-2.690;2023-11-21T15:22:47;5;;;5;;
80619;SDS011;69979;53.682;-2.690;2023-11-21T15:25:12;5;;;5;;
80619;SDS011;69979;53.682;-2.690;2023-11-21T15:27:38;6;;;6;;
80619;SDS011;69979;53.682;-2.690;2023-11-21T15:30:04;6;;;6;;
80619;SDS011;69979;53.682;-2.690;2023-11-21T15:32:29;5;;;5;;
80619;SDS011;69979;53.682;-2.690;2023-11-21T15:34:54;5;;;5;;
80619;SDS011;69979;53.682;-2.690;2023-11-21T15:37:20;4;;;4;;
80619;SDS011;69979;53.682;-2.690;2023-11-21T15:39:46;4;;;4;;
80619;SDS011;69979;53.682;-2.690;2023-11-21T15:42:11;3;;;3;;
80619;SDS011;69979;53.682;-2.690;2023-11-21T15:44:37;3;;;3;;
80619;SDS011;69979;53.682;-2.690;2023-11-21T15:47:02;4;;;4;;
80619;SDS011;69979;53.682;-2.690;2023-11-21T15:49:28;4;;;4;;
80619;SDS011;69979;53.682;-2.690;2023-11-21T15:51:53;7;;;6;;
80619;SDS011;69979;53.682;-2.690;2023-11-21T15:54:19;3;;;3;;
80619;SDS011;69979;53.682;-2.690;2023-11-21T15:56:45;6;;;6;;
80619;SDS011;69979;53.682;-2.690;2023-11-21T15:59:10;7;;;7;;
80619;SDS011;69979;53.682;-2.690;2023-11-21T16:01:36;6;;;6;;
80619;SDS011;69979;53.682;-2.690;2023-11-21T16:04:01;7;;;7;;